Time,TemperatureF,DewpointF,PressureIn,WindDirection,WindDirectionDegrees,WindSpeedMPH,WindSpeedGustMPH,Humidity,HourlyPrecipIn,Conditions,Clouds,dailyrainin,SoftwareType,DateUTC
2013-07-03 00:00:00,60.9,48.2,30.13,East,83,0.0,0.0,63,0.00,,---,0.00,VWS V14.01,2013-07-03 04:00:00,
2013-07-03 00:01:00,60.9,48.2,30.13,East,83,0.0,0.0,63,0.00,,---,0.00,VWS V14.01,2013-07-03 04:01:00,
2013-07-03 00:03:00,60.9,48.7,30.13,East,83,0.0,0.0,64,0.00,,---,0.00,VWS V14.01,2013-07-03 04:03:00,
2013-07-03 00:04:00,60.9,48.7,30.13,East,83,0.0,0.0,64,0.00,,---,0.00,VWS V14.01,2013-07-03 04:04:00,
2013-07-03 00:09:00,61.0,49.2,30.13,East,83,0.0,0.0,65,0.00,,---,0.00,VWS V14.01,2013-07-03 04:09:00,
2013-07-03 00:14:00,61.0,50.8,30.13,East,83,0.0,0.0,69,0.00,,---,0.00,VWS V14.01,2013-07-03 04:14:00,
2013-07-03 00:19:00,60.9,51.1,30.13,East,83,0.0,0.0,70,0.00,,---,0.00,VWS V14.01,2013-07-03 04:19:00,
2013-07-03 00:24:00,60.7,51.2,30.13,East,83,0.0,0.0,71,0.00,,---,0.00,VWS V14.01,2013-07-03 04:24:00,
2013-07-03 00:29:00,60.7,51.2,30.13,East,83,0.0,0.0,71,0.00,,---,0.00,VWS V14.01,2013-07-03 04:29:00,
2013-07-03 00:31:00,60.5,51.1,30.13,East,83,0.0,0.0,71,0.00,,---,0.00,VWS V14.01,2013-07-03 04:31:00,
2013-07-03 00:32:00,60.5,50.7,30.13,East,83,0.0,0.0,70,0.00,,---,0.00,VWS V14.01,2013-07-03 04:32:00,
2013-07-03 00:37:00,60.4,50.2,30.13,East,83,0.0,0.0,69,0.00,,---,0.00,VWS V14.01,2013-07-03 04:37:00,
2013-07-03 00:42:00,60.2,48.8,30.13,East,83,0.0,0.0,66,0.00,,---,0.00,VWS V14.01,2013-07-03 04:42:00,
2013-07-03 00:45:00,60.2,49.6,30.13,East,83,0.0,0.0,68,0.00,,---,0.00,VWS V14.01,2013-07-03 04:45:00,
2013-07-03 00:46:00,60.2,49.6,30.13,East,83,0.0,0.0,68,0.00,,---,0.00,VWS V14.01,2013-07-03 04:46:00,
2013-07-03 00:51:00,60.2,48.4,30.13,East,83,0.0,0.0,65,0.00,,---,0.00,VWS V14.01,2013-07-03 04:51:00,
2013-07-03 00:53:00,60.2,48.4,30.13,East,83,0.0,0.0,65,0.00,,---,0.00,VWS V14.01,2013-07-03 04:53:00,
2013-07-03 00:58:00,60.2,49.6,30.13,East,83,0.0,0.0,68,0.00,,---,0.00,VWS V14.01,2013-07-03 04:58:00,
2013-07-03 01:03:00,60.4,49.8,30.13,East,83,0.0,0.0,68,0.00,,---,0.00,VWS V14.01,2013-07-03 05:03:00,
2013-07-03 01:07:00,60.4,49.4,30.13,East,83,0.0,0.0,67,0.00,,---,0.00,VWS V14.01,2013-07-03 05:07:00,
2013-07-03 01:12:00,60.4,51.7,30.13,East,83,0.0,0.0,73,0.00,,---,0.00,VWS V14.01,2013-07-03 05:12:00,
2013-07-03 01:17:00,60.4,51.0,30.13,East,83,0.0,0.0,71,0.00,,---,0.00,VWS V14.01,2013-07-03 05:17:00,
2013-07-03 01:19:00,60.4,50.6,30.13,East,83,0.0,0.0,70,0.00,,---,0.00,VWS V14.01,2013-07-03 05:19:00,
2013-07-03 01:24:00,60.4,51.0,30.13,East,83,0.0,0.0,71,0.00,,---,0.00,VWS V14.01,2013-07-03 05:24:00,
2013-07-03 01:29:00,60.2,51.2,30.13,East,83,0.0,0.0,72,0.00,,---,0.00,VWS V14.01,2013-07-03 05:29:00,
2013-07-03 01:35:00,60.2,50.4,30.13,East,83,0.0,0.0,70,0.00,,---,0.00,VWS V14.01,2013-07-03 05:35:00,
2013-07-03 01:40:00,60.1,51.1,30.13,East,83,0.0,0.0,72,0.00,,---,0.00,VWS V14.01,2013-07-03 05:40:00,
2013-07-03 01:45:00,59.9,49.7,30.13,East,83,0.0,0.0,69,0.00,,---,0.00,VWS V14.01,2013-07-03 05:45:00,
2013-07-03 01:50:00,59.9,49.7,30.13,East,83,0.0,0.0,69,0.00,,---,0.00,VWS V14.01,2013-07-03 05:50:00,
2013-07-03 01:54:00,59.8,50.0,30.13,East,83,0.0,0.0,70,0.00,,---,0.00,VWS V14.01,2013-07-03 05:54:00,
2013-07-03 01:57:00,59.8,50.8,30.13,East,83,0.0,0.0,72,0.00,,---,0.00,VWS V14.01,2013-07-03 05:57:00,
2013-07-03 01:58:00,59.8,50.8,30.13,East,83,0.0,0.0,72,0.00,,---,0.00,VWS V14.01,2013-07-03 05:58:00,
2013-07-03 02:02:00,59.8,51.1,30.13,East,83,0.0,0.0,73,0.00,,---,0.00,VWS V14.01,2013-07-03 06:02:00,
2013-07-03 02:08:00,59.6,51.3,30.13,East,83,0.0,0.0,74,0.00,,---,0.00,VWS V14.01,2013-07-03 06:08:00,
2013-07-03 02:12:00,59.6,51.0,30.13,East,83,0.0,0.0,73,0.00,,---,0.00,VWS V14.01,2013-07-03 06:12:00,
2013-07-03 02:13:00,59.6,51.0,30.13,East,83,0.0,0.0,73,0.00,,---,0.00,VWS V14.01,2013-07-03 06:13:00,
2013-07-03 02:16:00,59.6,51.0,30.13,East,83,0.0,0.0,73,0.00,,---,0.00,VWS V14.01,2013-07-03 06:16:00,
2013-07-03 02:17:00,59.6,51.0,30.13,East,83,0.0,0.0,73,0.00,,---,0.00,VWS V14.01,2013-07-03 06:17:00,
2013-07-03 02:22:00,59.6,51.7,30.13,East,83,0.0,0.0,75,0.00,,---,0.00,VWS V14.01,2013-07-03 06:22:00,
2013-07-03 02:24:00,59.5,51.6,30.13,East,83,0.0,0.0,75,0.00,,---,0.00,VWS V14.01,2013-07-03 06:24:00,
2013-07-03 02:27:00,59.5,51.9,30.13,East,83,0.0,0.0,76,0.00,,---,0.00,VWS V14.01,2013-07-03 06:27:00,
2013-07-03 02:32:00,59.5,51.9,30.13,East,83,0.0,0.0,76,0.00,,---,0.00,VWS V14.01,2013-07-03 06:32:00,
2013-07-03 02:37:00,59.3,51.4,30.13,East,83,0.0,0.0,75,0.00,,---,0.00,VWS V14.01,2013-07-03 06:37:00,
2013-07-03 02:42:00,59.3,51.4,30.13,East,83,0.0,0.0,75,0.00,,---,0.00,VWS V14.01,2013-07-03 06:42:00,
2013-07-03 02:45:00,59.3,51.4,30.13,East,83,0.0,0.0,75,0.00,,---,0.00,VWS V14.01,2013-07-03 06:45:00,
2013-07-03 02:50:00,59.2,49.4,30.12,East,83,0.0,0.0,70,0.00,,---,0.00,VWS V14.01,2013-07-03 06:50:00,
2013-07-03 02:55:00,59.2,49.8,30.12,East,83,0.0,0.0,71,0.00,,---,0.00,VWS V14.01,2013-07-03 06:55:00,
2013-07-03 03:00:00,59.3,50.3,30.13,East,83,0.0,0.0,72,0.00,,---,0.00,VWS V14.01,2013-07-03 07:00:00,
2013-07-03 03:06:00,59.3,50.3,30.12,East,83,0.0,0.0,72,0.00,,---,0.00,VWS V14.01,2013-07-03 07:06:00,
2013-07-03 03:11:00,59.3,51.0,30.12,East,83,0.0,0.0,74,0.00,,---,0.00,VWS V14.01,2013-07-03 07:11:00,
2013-07-03 03:16:00,59.2,48.7,30.12,East,83,0.0,0.0,68,0.00,,---,0.00,VWS V14.01,2013-07-03 07:16:00,
2013-07-03 03:21:00,59.3,49.5,30.12,East,83,0.0,0.0,70,0.00,,---,0.00,VWS V14.01,2013-07-03 07:21:00,
2013-07-03 03:26:00,59.3,49.9,30.12,East,83,0.0,0.0,71,0.00,,---,0.00,VWS V14.01,2013-07-03 07:26:00,
2013-07-03 03:32:00,59.3,50.3,30.12,East,83,0.0,0.0,72,0.00,,---,0.00,VWS V14.01,2013-07-03 07:32:00,
2013-07-03 03:37:00,59.5,50.8,30.12,East,83,0.0,0.0,73,0.00,,---,0.00,VWS V14.01,2013-07-03 07:37:00,
2013-07-03 03:38:00,59.5,50.8,30.12,East,83,0.0,0.0,73,0.00,,---,0.00,VWS V14.01,2013-07-03 07:38:00,
2013-07-03 03:43:00,59.5,50.8,30.12,East,83,0.0,0.0,73,0.00,,---,0.00,VWS V14.01,2013-07-03 07:43:00,
2013-07-03 03:48:00,59.3,50.7,30.12,East,83,0.0,0.0,73,0.00,,---,0.00,VWS V14.01,2013-07-03 07:48:00,
2013-07-03 03:50:00,59.3,49.1,30.12,East,83,0.0,0.0,69,0.00,,---,0.00,VWS V14.01,2013-07-03 07:50:00,
2013-07-03 03:55:00,59.3,49.9,30.12,East,83,0.0,0.0,71,0.00,,---,0.00,VWS V14.01,2013-07-03 07:55:00,
2013-07-03 04:01:00,59.3,50.3,30.11,East,83,0.0,0.0,72,0.00,,---,0.00,VWS V14.01,2013-07-03 08:01:00,
2013-07-03 04:06:00,59.3,50.7,30.11,East,83,0.0,0.0,73,0.00,,---,0.00,VWS V14.01,2013-07-03 08:06:00,
2013-07-03 04:09:00,59.3,50.3,30.11,East,83,0.0,0.0,72,0.00,,---,0.00,VWS V14.01,2013-07-03 08:09:00,
2013-07-03 04:14:00,59.3,50.3,30.11,East,83,0.0,0.0,72,0.00,,---,0.00,VWS V14.01,2013-07-03 08:14:00,
2013-07-03 04:15:00,59.2,50.2,30.11,East,83,0.0,0.0,72,0.00,,---,0.00,VWS V14.01,2013-07-03 08:15:00,
2013-07-03 04:18:00,59.2,49.8,30.12,East,83,0.0,0.0,71,0.00,,---,0.00,VWS V14.01,2013-07-03 08:18:00,
2013-07-03 04:24:00,59.2,50.9,30.12,East,83,0.0,0.0,74,0.00,,---,0.00,VWS V14.01,2013-07-03 08:24:00,
2013-07-03 04:29:00,59.2,50.6,30.12,East,83,0.0,0.0,73,0.00,,---,0.00,VWS V14.01,2013-07-03 08:29:00,
2013-07-03 04:34:00,59.2,50.9,30.12,East,83,0.0,0.0,74,0.00,,---,0.00,VWS V14.01,2013-07-03 08:34:00,
2013-07-03 04:39:00,59.0,50.0,30.12,East,83,0.0,0.0,72,0.00,,---,0.00,VWS V14.01,2013-07-03 08:39:00,
2013-07-03 04:44:00,59.0,50.4,30.12,East,83,0.0,0.0,73,0.00,,---,0.00,VWS V14.01,2013-07-03 08:44:00,
2013-07-03 04:45:00,59.0,50.4,30.12,East,83,0.0,0.0,73,0.00,,---,0.00,VWS V14.01,2013-07-03 08:45:00,
2013-07-03 04:50:00,59.0,50.7,30.12,East,83,0.0,0.0,74,0.00,,---,0.00,VWS V14.01,2013-07-03 08:50:00,
2013-07-03 04:54:00,59.0,50.7,30.12,East,83,0.0,0.0,74,0.00,,---,0.00,VWS V14.01,2013-07-03 08:54:00,
2013-07-03 04:55:00,59.0,50.4,30.12,East,83,0.0,0.0,73,0.00,,---,0.00,VWS V14.01,2013-07-03 08:55:00,
2013-07-03 05:01:00,59.0,51.1,30.12,East,83,0.0,0.0,75,0.00,,---,0.00,VWS V14.01,2013-07-03 09:01:00,
2013-07-03 05:05:00,58.9,51.0,30.12,East,83,0.0,0.0,75,0.00,,---,0.00,VWS V14.01,2013-07-03 09:05:00,
2013-07-03 05:11:00,58.9,49.9,30.12,East,83,0.0,0.0,72,0.00,,---,0.00,VWS V14.01,2013-07-03 09:11:00,
2013-07-03 05:16:00,58.7,49.3,30.12,East,83,0.0,0.0,71,0.00,,---,0.00,VWS V14.01,2013-07-03 09:16:00,
2013-07-03 05:21:00,58.4,49.0,30.13,East,83,0.0,0.0,71,0.00,,---,0.00,VWS V14.01,2013-07-03 09:21:00,
2013-07-03 05:26:00,58.3,49.0,30.13,East,83,0.0,0.0,71,0.00,,---,0.00,VWS V14.01,2013-07-03 09:26:00,
2013-07-03 05:31:00,58.0,49.0,30.13,East,83,0.0,0.0,72,0.00,,---,0.00,VWS V14.01,2013-07-03 09:31:00,
2013-07-03 05:36:00,57.8,49.2,30.13,East,83,0.0,0.0,73,0.00,,---,0.00,VWS V14.01,2013-07-03 09:36:00,
2013-07-03 05:41:00,57.5,49.3,30.13,East,83,0.0,0.0,74,0.00,,---,0.00,VWS V14.01,2013-07-03 09:41:00,
2013-07-03 05:42:00,57.5,49.3,30.13,East,83,0.0,0.0,74,0.00,,---,0.00,VWS V14.01,2013-07-03 09:42:00,
2013-07-03 05:47:00,57.2,49.4,30.13,East,83,0.0,0.0,75,0.00,,---,0.00,VWS V14.01,2013-07-03 09:47:00,
2013-07-03 05:50:00,57.0,49.5,30.13,East,83,0.0,0.0,76,0.00,,---,0.00,VWS V14.01,2013-07-03 09:50:00,
2013-07-03 05:55:00,56.7,49.9,30.13,East,83,0.0,0.0,78,0.00,,---,0.00,VWS V14.01,2013-07-03 09:55:00,
2013-07-03 06:00:00,56.5,49.7,30.13,East,83,0.0,0.0,78,0.00,,---,0.00,VWS V14.01,2013-07-03 10:00:00,
2013-07-03 06:04:00,56.3,49.9,30.13,East,83,0.0,0.0,79,0.00,,---,0.00,VWS V14.01,2013-07-03 10:04:00,
2013-07-03 06:05:00,56.2,49.8,30.13,East,83,0.0,0.0,79,0.00,,---,0.00,VWS V14.01,2013-07-03 10:05:00,
2013-07-03 06:10:00,56.0,49.9,30.13,East,83,0.0,0.0,80,0.00,,---,0.00,VWS V14.01,2013-07-03 10:10:00,
2013-07-03 06:15:00,55.9,49.8,30.13,East,83,0.0,0.0,80,0.00,,---,0.00,VWS V14.01,2013-07-03 10:15:00,
2013-07-03 06:20:00,55.6,49.5,30.13,East,83,0.0,0.0,80,0.00,,---,0.00,VWS V14.01,2013-07-03 10:20:00,
2013-07-03 06:25:00,55.4,49.3,30.13,East,83,0.0,0.0,80,0.00,,---,0.00,VWS V14.01,2013-07-03 10:25:00,
2013-07-03 06:30:00,55.3,49.2,30.13,East,83,0.0,0.0,80,0.00,,---,0.00,VWS V14.01,2013-07-03 10:30:00,
2013-07-03 06:31:00,55.1,49.0,30.14,East,83,0.0,0.0,80,0.00,,---,0.00,VWS V14.01,2013-07-03 10:31:00,
2013-07-03 06:36:00,55.1,49.4,30.14,East,83,0.0,0.0,81,0.00,,---,0.00,VWS V14.01,2013-07-03 10:36:00,
2013-07-03 06:41:00,55.0,49.6,30.13,East,83,0.0,0.0,82,0.00,,---,0.00,VWS V14.01,2013-07-03 10:41:00,
2013-07-03 06:46:00,54.8,49.4,30.13,East,83,0.0,0.0,82,0.00,,---,0.00,VWS V14.01,2013-07-03 10:46:00,
2013-07-03 06:49:00,54.8,49.4,30.14,East,83,0.0,0.0,82,0.00,,---,0.00,VWS V14.01,2013-07-03 10:49:00,
2013-07-03 06:54:00,54.8,49.7,30.14,East,83,0.0,0.0,83,0.00,,---,0.00,VWS V14.01,2013-07-03 10:54:00,
2013-07-03 06:56:00,54.8,49.7,30.14,East,83,0.0,0.0,83,0.00,,---,0.00,VWS V14.01,2013-07-03 10:56:00,
2013-07-03 06:57:00,54.8,50.1,30.14,East,83,0.0,0.0,84,0.00,,---,0.00,VWS V14.01,2013-07-03 10:57:00,
2013-07-03 07:03:00,54.8,50.1,30.14,East,83,0.0,0.0,84,0.00,,---,0.00,VWS V14.01,2013-07-03 11:03:00,
2013-07-03 07:08:00,55.0,50.9,30.14,East,83,0.0,0.0,86,0.00,,---,0.00,VWS V14.01,2013-07-03 11:08:00,
2013-07-03 07:09:00,55.1,51.0,30.14,East,83,0.0,0.0,86,0.00,,---,0.00,VWS V14.01,2013-07-03 11:09:00,
2013-07-03 07:14:00,55.6,51.8,30.14,East,83,0.0,0.0,87,0.00,,---,0.00,VWS V14.01,2013-07-03 11:14:00,
2013-07-03 07:19:00,56.2,53.0,30.14,East,83,0.0,0.0,89,0.00,,---,0.00,VWS V14.01,2013-07-03 11:19:00,
2013-07-03 07:23:00,56.7,53.5,30.14,East,83,0.0,0.0,89,0.00,,---,0.00,VWS V14.01,2013-07-03 11:23:00,
2013-07-03 07:25:00,57.0,53.8,30.14,East,83,0.0,0.0,89,0.00,,---,0.00,VWS V14.01,2013-07-03 11:25:00,
2013-07-03 07:30:00,57.6,53.1,30.14,East,83,0.0,0.0,85,0.00,,---,0.00,VWS V14.01,2013-07-03 11:30:00,
2013-07-03 07:35:00,58.4,53.3,30.14,East,83,0.0,0.0,83,0.00,,---,0.00,VWS V14.01,2013-07-03 11:35:00,
2013-07-03 07:40:00,59.3,53.5,30.14,East,83,0.0,0.0,81,0.00,,---,0.00,VWS V14.01,2013-07-03 11:40:00,
2013-07-03 07:45:00,60.1,53.2,30.15,East,83,0.0,0.0,78,0.00,,---,0.00,VWS V14.01,2013-07-03 11:45:00,
2013-07-03 07:46:00,60.2,53.3,30.15,East,83,0.0,0.0,78,0.00,,---,0.00,VWS V14.01,2013-07-03 11:46:00,
2013-07-03 07:51:00,61.3,53.3,30.15,East,83,0.0,0.0,75,0.00,,---,0.00,VWS V14.01,2013-07-03 11:51:00,
2013-07-03 07:56:00,62.3,52.4,30.15,East,83,0.0,0.0,70,0.00,,---,0.00,VWS V14.01,2013-07-03 11:56:00,
2013-07-03 07:59:00,62.9,52.2,30.15,East,83,0.0,0.0,68,0.00,,---,0.00,VWS V14.01,2013-07-03 11:59:00,
2013-07-03 08:02:00,63.5,52.0,30.15,East,83,0.0,0.0,66,0.00,,---,0.00,VWS V14.01,2013-07-03 12:02:00,
2013-07-03 08:07:00,64.8,51.9,30.15,East,83,0.0,0.0,63,0.00,,---,0.00,VWS V14.01,2013-07-03 12:07:00,
2013-07-03 08:12:00,65.6,51.4,30.15,East,83,0.0,0.0,60,0.00,,---,0.00,VWS V14.01,2013-07-03 12:12:00,
2013-07-03 08:14:00,66.0,51.3,30.15,East,83,0.0,0.0,59,0.00,,---,0.00,VWS V14.01,2013-07-03 12:14:00,
2013-07-03 08:17:00,66.6,51.8,30.15,East,83,0.0,0.0,59,0.00,,---,0.00,VWS V14.01,2013-07-03 12:17:00,
2013-07-03 08:20:00,67.1,51.4,30.15,East,83,0.0,0.0,57,0.00,,---,0.00,VWS V14.01,2013-07-03 12:20:00,
2013-07-03 08:25:00,68.1,52.3,30.14,East,83,0.0,0.0,57,0.00,,---,0.00,VWS V14.01,2013-07-03 12:25:00,
2013-07-03 08:30:00,68.8,53.4,30.14,East,83,0.0,0.0,58,0.00,,---,0.00,VWS V14.01,2013-07-03 12:30:00,
2013-07-03 08:36:00,68.4,52.1,30.14,East,83,0.0,0.0,56,0.00,,---,0.00,VWS V14.01,2013-07-03 12:36:00,
2013-07-03 08:41:00,68.4,54.0,30.14,SSW,198,0.0,0.0,60,0.00,,---,0.00,VWS V14.01,2013-07-03 12:41:00,
2013-07-03 08:46:00,68.1,53.2,30.14,SSW,207,0.0,0.0,59,0.00,,---,0.00,VWS V14.01,2013-07-03 12:46:00,
2013-07-03 08:51:00,68.3,53.4,30.14,SSW,207,0.0,0.0,59,0.00,,---,0.00,VWS V14.01,2013-07-03 12:51:00,
2013-07-03 08:57:00,68.9,52.1,30.14,SSW,207,0.0,0.0,55,0.00,,---,0.00,VWS V14.01,2013-07-03 12:57:00,
2013-07-03 09:02:00,69.4,53.5,30.15,SSW,207,0.0,0.0,57,0.00,,---,0.00,VWS V14.01,2013-07-03 13:02:00,
2013-07-03 09:07:00,69.6,53.2,30.14,SSW,207,0.0,0.0,56,0.00,,---,0.00,VWS V14.01,2013-07-03 13:07:00,
2013-07-03 09:12:00,69.6,51.2,30.15,SSW,207,0.0,0.0,52,0.00,,---,0.00,VWS V14.01,2013-07-03 13:12:00,
2013-07-03 09:17:00,70.4,52.0,30.14,SSW,207,0.0,0.0,52,0.00,,---,0.00,VWS V14.01,2013-07-03 13:17:00,
2013-07-03 09:22:00,70.9,52.4,30.14,SSW,207,0.0,0.0,52,0.00,,---,0.00,VWS V14.01,2013-07-03 13:22:00,
2013-07-03 09:25:00,71.1,52.6,30.14,SSW,207,0.0,0.0,52,0.00,,---,0.00,VWS V14.01,2013-07-03 13:25:00,
2013-07-03 09:28:00,71.3,52.3,30.14,SSW,207,0.0,0.0,51,0.00,,---,0.00,VWS V14.01,2013-07-03 13:28:00,
2013-07-03 09:33:00,72.3,52.6,30.14,SSW,208,0.0,0.0,50,0.00,,---,0.00,VWS V14.01,2013-07-03 13:33:00,
2013-07-03 09:37:00,72.0,51.3,30.14,NE,42,0.0,0.0,48,0.00,,---,0.00,VWS V14.01,2013-07-03 13:37:00,
2013-07-03 09:42:00,72.0,53.4,30.14,WNW,296,0.0,0.0,52,0.00,,---,0.00,VWS V14.01,2013-07-03 13:42:00,
2013-07-03 09:47:00,71.8,53.2,30.14,West,279,0.0,0.0,52,0.00,,---,0.00,VWS V14.01,2013-07-03 13:47:00,
2013-07-03 09:52:00,71.8,53.2,30.14,WNW,291,0.0,0.0,52,0.00,,---,0.00,VWS V14.01,2013-07-03 13:52:00,
2013-07-03 09:57:00,71.6,52.5,30.14,NW,305,0.0,0.0,51,0.00,,---,0.00,VWS V14.01,2013-07-03 13:57:00,
2013-07-03 10:03:00,71.3,52.8,30.14,NW,315,0.0,0.0,52,0.00,,---,0.00,VWS V14.01,2013-07-03 14:03:00,
2013-07-03 10:06:00,71.1,52.6,30.14,NNW,328,0.0,0.0,52,0.00,,---,0.00,VWS V14.01,2013-07-03 14:06:00,
2013-07-03 10:09:00,71.5,54.5,30.14,WSW,254,0.0,0.0,55,0.00,,---,0.00,VWS V14.01,2013-07-03 14:09:00,
2013-07-03 10:14:00,71.8,52.7,30.14,WSW,254,0.0,0.0,51,0.00,,---,0.00,VWS V14.01,2013-07-03 14:14:00,
2013-07-03 10:17:00,72.0,52.9,30.14,West,273,0.0,0.0,51,0.00,,---,0.00,VWS V14.01,2013-07-03 14:17:00,
2013-07-03 10:22:00,72.5,52.8,30.14,WNW,294,0.0,0.0,50,0.00,,---,0.00,VWS V14.01,2013-07-03 14:22:00,
2013-07-03 10:27:00,72.8,52.5,30.14,NW,306,0.0,0.0,49,0.00,,---,0.00,VWS V14.01,2013-07-03 14:27:00,
2013-07-03 10:30:00,72.7,53.5,30.14,NW,311,0.0,0.0,51,0.00,,---,0.00,VWS V14.01,2013-07-03 14:30:00,
2013-07-03 10:35:00,72.5,52.8,30.14,NW,311,0.0,0.0,50,0.00,,---,0.00,VWS V14.01,2013-07-03 14:35:00,
2013-07-03 10:38:00,72.5,51.7,30.14,NW,311,0.0,0.0,48,0.00,,---,0.00,VWS V14.01,2013-07-03 14:38:00,
2013-07-03 10:41:00,72.3,52.6,30.14,NW,311,0.0,0.0,50,0.00,,---,0.00,VWS V14.01,2013-07-03 14:41:00,
2013-07-03 10:46:00,72.1,52.5,30.13,NW,311,0.0,0.0,50,0.00,,---,0.00,VWS V14.01,2013-07-03 14:46:00,
2013-07-03 10:51:00,72.1,54.0,30.13,NNW,335,0.0,0.0,53,0.00,,---,0.00,VWS V14.01,2013-07-03 14:51:00,
2013-07-03 10:56:00,72.5,53.4,30.14,NNW,335,0.0,0.0,51,0.00,,---,0.00,VWS V14.01,2013-07-03 14:56:00,
2013-07-03 10:58:00,72.7,53.5,30.13,NNW,335,0.0,0.0,51,0.00,,---,0.00,VWS V14.01,2013-07-03 14:58:00,
2013-07-03 11:03:00,72.8,53.6,30.13,NNW,335,0.0,0.0,51,0.00,,---,0.00,VWS V14.01,2013-07-03 15:03:00,
2013-07-03 11:09:00,73.0,53.8,30.13,North,350,0.0,0.0,51,0.00,,---,0.00,VWS V14.01,2013-07-03 15:09:00,
2013-07-03 11:14:00,73.3,53.6,30.13,North,355,0.0,0.0,50,0.00,,---,0.00,VWS V14.01,2013-07-03 15:14:00,
2013-07-03 11:15:00,73.5,53.7,30.13,North,355,0.0,0.0,50,0.00,,---,0.00,VWS V14.01,2013-07-03 15:15:00,
2013-07-03 11:20:00,73.5,54.3,30.13,North,355,0.0,0.0,51,0.00,,---,0.00,VWS V14.01,2013-07-03 15:20:00,
2013-07-03 11:25:00,73.3,54.1,30.13,North,9,0.0,0.0,51,0.00,,---,0.00,VWS V14.01,2013-07-03 15:25:00,
2013-07-03 11:28:00,73.3,52.5,30.13,North,9,0.0,0.0,48,0.00,,---,0.00,VWS V14.01,2013-07-03 15:28:00,
2013-07-03 11:33:00,73.7,55.0,30.13,North,9,0.0,0.0,52,0.00,,---,0.00,VWS V14.01,2013-07-03 15:33:00,
2013-07-03 11:38:00,74.2,54.4,30.13,North,9,0.0,0.0,50,0.00,,---,0.00,VWS V14.01,2013-07-03 15:38:00,
2013-07-03 11:41:00,74.2,54.4,30.13,North,5,0.0,0.0,50,0.00,,---,0.00,VWS V14.01,2013-07-03 15:41:00,
2013-07-03 11:46:00,74.4,54.0,30.13,North,5,0.0,0.0,49,0.00,,---,0.00,VWS V14.01,2013-07-03 15:46:00,
2013-07-03 11:51:00,74.6,55.3,30.13,North,5,0.0,0.0,51,0.00,,---,0.00,VWS V14.01,2013-07-03 15:51:00,
2013-07-03 11:52:00,74.6,53.6,30.13,North,5,0.0,0.0,48,0.00,,---,0.00,VWS V14.01,2013-07-03 15:52:00,
2013-07-03 11:53:00,74.6,53.1,30.13,North,5,0.0,0.0,47,0.00,,---,0.00,VWS V14.01,2013-07-03 15:53:00,
2013-07-03 11:58:00,74.2,53.8,30.13,North,5,0.0,0.0,49,0.00,,---,0.00,VWS V14.01,2013-07-03 15:58:00,
2013-07-03 12:03:00,74.2,53.8,30.13,North,5,0.0,0.0,49,0.00,,---,0.00,VWS V14.01,2013-07-03 16:03:00,
2013-07-03 12:08:00,74.4,54.0,30.13,North,5,0.0,0.0,49,0.00,,---,0.00,VWS V14.01,2013-07-03 16:08:00,
2013-07-03 12:14:00,74.6,54.8,30.13,North,5,0.0,0.0,50,0.00,,---,0.00,VWS V14.01,2013-07-03 16:14:00,
2013-07-03 12:19:00,74.6,55.3,30.13,North,5,0.0,0.0,51,0.00,,---,0.00,VWS V14.01,2013-07-03 16:19:00,
2013-07-03 12:24:00,74.7,54.3,30.13,North,5,0.0,0.0,49,0.00,,---,0.00,VWS V14.01,2013-07-03 16:24:00,
2013-07-03 12:29:00,74.9,54.5,30.13,North,5,0.0,0.0,49,0.00,,---,0.00,VWS V14.01,2013-07-03 16:29:00,
2013-07-03 12:34:00,74.9,53.9,30.13,North,5,0.0,0.0,48,0.00,,---,0.00,VWS V14.01,2013-07-03 16:34:00,
2013-07-03 12:39:00,74.7,53.7,30.12,North,5,0.0,0.0,48,0.00,,---,0.00,VWS V14.01,2013-07-03 16:39:00,
2013-07-03 12:45:00,74.7,53.7,30.12,North,5,0.0,0.0,48,0.00,,---,0.00,VWS V14.01,2013-07-03 16:45:00,
2013-07-03 12:50:00,75.1,55.2,30.12,North,5,0.0,0.0,50,0.00,,---,0.00,VWS V14.01,2013-07-03 16:50:00,
2013-07-03 12:55:00,75.8,54.7,30.12,North,5,0.0,0.0,48,0.00,,---,0.00,VWS V14.01,2013-07-03 16:55:00,
2013-07-03 13:00:00,76.1,53.8,30.12,North,5,0.0,0.0,46,0.00,,---,0.00,VWS V14.01,2013-07-03 17:00:00,
2013-07-03 13:05:00,76.3,52.8,30.12,North,5,0.0,0.0,44,0.00,,---,0.00,VWS V14.01,2013-07-03 17:05:00,
2013-07-03 13:10:00,76.7,55.5,30.12,North,5,0.0,0.0,48,0.00,,---,0.00,VWS V14.01,2013-07-03 17:10:00,
2013-07-03 13:15:00,76.8,52.6,30.11,North,5,0.0,0.0,43,0.00,,---,0.00,VWS V14.01,2013-07-03 17:15:00,
2013-07-03 13:20:00,77.0,51.5,30.11,North,5,0.0,0.0,41,0.00,,---,0.00,VWS V14.01,2013-07-03 17:20:00,
2013-07-03 13:25:00,77.4,53.2,30.11,North,5,0.0,0.0,43,0.00,,---,0.00,VWS V14.01,2013-07-03 17:25:00,
2013-07-03 13:30:00,77.4,52.5,30.11,North,5,0.0,0.0,42,0.00,,---,0.00,VWS V14.01,2013-07-03 17:30:00,
2013-07-03 13:35:00,77.0,54.1,30.11,WNW,301,0.0,0.0,45,0.00,,---,0.00,VWS V14.01,2013-07-03 17:35:00,
2013-07-03 13:40:00,77.2,53.0,30.11,WNW,302,0.0,0.0,43,0.00,,---,0.00,VWS V14.01,2013-07-03 17:40:00,
2013-07-03 13:46:00,77.4,52.5,30.11,NNW,339,0.0,0.0,42,0.00,,---,0.00,VWS V14.01,2013-07-03 17:46:00,
2013-07-03 13:51:00,77.9,53.0,30.10,NNW,347,0.0,0.0,42,0.00,,---,0.00,VWS V14.01,2013-07-03 17:51:00,
2013-07-03 13:56:00,78.5,53.5,30.10,North,350,0.0,0.0,42,0.00,,---,0.00,VWS V14.01,2013-07-03 17:56:00,
2013-07-03 14:01:00,78.3,53.3,30.10,NW,326,0.0,0.0,42,0.00,,---,0.00,VWS V14.01,2013-07-03 18:01:00,
2013-07-03 14:06:00,78.8,53.1,30.10,WNW,300,0.0,0.0,41,0.00,,---,0.00,VWS V14.01,2013-07-03 18:06:00,
2013-07-03 14:11:00,78.8,53.1,30.10,NW,307,0.0,0.0,41,0.00,,---,0.00,VWS V14.01,2013-07-03 18:11:00,
2013-07-03 14:16:00,78.8,53.8,30.09,NNW,331,0.0,0.0,42,0.00,,---,0.00,VWS V14.01,2013-07-03 18:16:00,
2013-07-03 14:21:00,79.0,55.2,30.09,NNW,347,0.0,0.0,44,0.00,,---,0.00,VWS V14.01,2013-07-03 18:21:00,
2013-07-03 14:26:00,79.0,57.1,30.09,NNW,341,0.0,0.0,47,0.00,,---,0.00,VWS V14.01,2013-07-03 18:26:00,
2013-07-03 14:31:00,79.8,55.3,30.09,SSW,198,0.0,0.0,43,0.00,,---,0.00,VWS V14.01,2013-07-03 18:31:00,
2013-07-03 14:36:00,79.8,55.3,30.09,SSE,157,0.0,0.0,43,0.00,,---,0.00,VWS V14.01,2013-07-03 18:36:00,
2013-07-03 14:41:00,79.8,56.6,30.08,SE,143,0.0,0.0,45,0.00,,---,0.00,VWS V14.01,2013-07-03 18:41:00,
2013-07-03 14:47:00,79.9,54.8,30.09,SW,226,0.0,0.0,42,0.00,,---,0.00,VWS V14.01,2013-07-03 18:47:00,
2013-07-03 14:52:00,79.9,56.7,30.09,SE,133,0.0,0.0,45,0.00,,---,0.00,VWS V14.01,2013-07-03 18:52:00,
2013-07-03 14:57:00,79.4,56.8,30.09,South,191,0.0,0.0,46,0.00,,---,0.00,VWS V14.01,2013-07-03 18:57:00,
2013-07-03 15:02:00,78.6,56.1,30.09,SSW,213,0.0,0.0,46,0.00,,---,0.00,VWS V14.01,2013-07-03 19:02:00,
2013-07-03 15:07:00,78.1,56.8,30.09,WNW,282,0.0,0.0,48,0.00,,---,0.00,VWS V14.01,2013-07-03 19:07:00,
2013-07-03 15:12:00,77.4,57.9,30.09,West,260,0.0,0.0,51,0.00,,---,0.00,VWS V14.01,2013-07-03 19:12:00,
2013-07-03 15:17:00,77.2,57.1,30.09,SE,143,0.0,0.0,50,0.00,,---,0.00,VWS V14.01,2013-07-03 19:17:00,
2013-07-03 15:22:00,76.8,57.3,30.09,SW,219,0.0,0.0,51,0.00,,---,0.00,VWS V14.01,2013-07-03 19:22:00,
2013-07-03 15:27:00,76.8,58.4,30.09,West,261,0.0,0.0,53,0.00,,---,0.00,VWS V14.01,2013-07-03 19:27:00,
2013-07-03 15:33:00,76.5,58.6,30.09,West,261,0.0,0.0,54,0.00,,---,0.00,VWS V14.01,2013-07-03 19:33:00,
2013-07-03 15:38:00,76.3,57.4,30.09,NNW,340,0.0,0.0,52,0.00,,---,0.00,VWS V14.01,2013-07-03 19:38:00,
2013-07-03 15:43:00,76.0,57.1,30.09,NNW,347,0.0,0.0,52,0.00,,---,0.00,VWS V14.01,2013-07-03 19:43:00,
2013-07-03 15:48:00,75.4,56.0,30.09,NNE,26,0.0,0.0,51,0.00,,---,0.00,VWS V14.01,2013-07-03 19:48:00,
2013-07-03 15:53:00,74.9,56.1,30.09,NNE,30,0.0,0.0,52,0.00,,---,0.00,VWS V14.01,2013-07-03 19:53:00,
2013-07-03 15:58:00,74.6,58.9,30.09,NNE,30,0.0,0.0,58,0.00,,---,0.00,VWS V14.01,2013-07-03 19:58:00,
2013-07-03 16:03:00,73.9,61.0,30.08,NNE,30,0.0,0.0,64,0.00,,---,0.00,VWS V14.01,2013-07-03 20:03:00,
2013-07-03 16:08:00,73.0,61.0,30.08,NNE,30,0.0,0.0,66,0.00,,---,0.00,VWS V14.01,2013-07-03 20:08:00,
2013-07-03 16:13:00,72.5,59.6,30.08,NNE,30,0.0,0.0,64,0.00,,---,0.00,VWS V14.01,2013-07-03 20:13:00,
2013-07-03 16:18:00,72.0,59.2,30.08,NNE,32,0.0,0.0,64,0.00,,---,0.00,VWS V14.01,2013-07-03 20:18:00,
2013-07-03 16:24:00,71.8,59.4,30.08,NNE,28,0.0,0.0,65,0.00,,---,0.00,VWS V14.01,2013-07-03 20:24:00,
2013-07-03 16:29:00,72.1,58.8,30.08,NNE,26,0.0,0.0,63,0.00,,---,0.00,VWS V14.01,2013-07-03 20:29:00,
2013-07-03 16:34:00,73.2,57.5,30.07,North,360,0.0,0.0,58,0.00,,---,0.00,VWS V14.01,2013-07-03 20:34:00,
2013-07-03 16:39:00,73.5,56.9,30.07,North,355,0.0,0.0,56,0.00,,---,0.00,VWS V14.01,2013-07-03 20:39:00,
2013-07-03 16:44:00,73.9,56.2,30.07,North,5,0.0,0.0,54,0.00,,---,0.00,VWS V14.01,2013-07-03 20:44:00,
2013-07-03 16:49:00,74.6,56.4,30.07,NE,35,0.0,0.0,53,0.00,,---,0.00,VWS V14.01,2013-07-03 20:49:00,
2013-07-03 16:54:00,74.7,55.9,30.07,NNE,21,0.0,0.0,52,0.00,,---,0.00,VWS V14.01,2013-07-03 20:54:00,
2013-07-03 16:59:00,74.7,55.9,30.07,North,360,0.0,0.0,52,0.00,,---,0.00,VWS V14.01,2013-07-03 20:59:00,
2013-07-03 17:04:00,74.7,55.9,30.07,NNE,24,0.0,0.0,52,0.00,,---,0.00,VWS V14.01,2013-07-03 21:04:00,
2013-07-03 17:09:00,75.1,54.7,30.07,North,5,0.0,0.0,49,0.00,,---,0.00,VWS V14.01,2013-07-03 21:09:00,
2013-07-03 17:15:00,74.9,54.5,30.07,NNE,21,0.0,0.0,49,0.00,,---,0.00,VWS V14.01,2013-07-03 21:15:00,
2013-07-03 17:20:00,74.6,53.6,30.06,NNE,26,0.0,0.0,48,0.00,,---,0.00,VWS V14.01,2013-07-03 21:20:00,
2013-07-03 17:25:00,74.7,53.2,30.07,NNE,13,0.0,0.0,47,0.00,,---,0.00,VWS V14.01,2013-07-03 21:25:00,
2013-07-03 17:30:00,74.9,53.3,30.06,NNE,32,0.0,0.0,47,0.00,,---,0.00,VWS V14.01,2013-07-03 21:30:00,
2013-07-03 17:35:00,75.1,54.7,30.07,NNE,14,0.0,0.0,49,0.00,,---,0.00,VWS V14.01,2013-07-03 21:35:00,
2013-07-03 17:40:00,75.4,54.9,30.06,NE,46,0.0,0.0,49,0.00,,---,0.00,VWS V14.01,2013-07-03 21:40:00,
2013-07-03 17:45:00,75.8,54.7,30.06,NE,37,0.0,0.0,48,0.00,,---,0.00,VWS V14.01,2013-07-03 21:45:00,
2013-07-03 17:50:00,76.0,54.9,30.07,North,9,0.0,0.0,48,0.00,,---,0.00,VWS V14.01,2013-07-03 21:50:00,
2013-07-03 17:55:00,76.3,55.2,30.06,NNE,15,0.0,0.0,48,0.00,,---,0.00,VWS V14.01,2013-07-03 21:55:00,
2013-07-03 18:00:00,76.3,55.8,30.06,North,355,0.0,0.0,49,0.00,,---,0.00,VWS V14.01,2013-07-03 22:00:00,
2013-07-03 18:05:00,76.3,55.2,30.06,North,355,0.0,0.0,48,0.00,,---,0.00,VWS V14.01,2013-07-03 22:05:00,
2013-07-03 18:10:00,76.3,54.6,30.06,NNE,12,0.0,0.0,47,0.00,,---,0.00,VWS V14.01,2013-07-03 22:10:00,
2013-07-03 18:15:00,76.3,54.6,30.06,NE,38,0.0,0.0,47,0.00,,---,0.00,VWS V14.01,2013-07-03 22:15:00,
2013-07-03 18:20:00,76.1,55.0,30.06,North,10,0.0,0.0,48,0.00,,---,0.00,VWS V14.01,2013-07-03 22:20:00,
2013-07-03 18:25:00,76.1,55.0,30.06,NE,38,0.0,0.0,48,0.00,,---,0.00,VWS V14.01,2013-07-03 22:25:00,
2013-07-03 18:31:00,76.3,55.2,30.06,NNE,33,0.0,0.0,48,0.00,,---,0.00,VWS V14.01,2013-07-03 22:31:00,
2013-07-03 18:36:00,76.0,55.5,30.05,NNE,16,0.0,0.0,49,0.00,,---,0.00,VWS V14.01,2013-07-03 22:36:00,
2013-07-03 18:41:00,76.1,55.6,30.05,North,9,0.0,0.0,49,0.00,,---,0.00,VWS V14.01,2013-07-03 22:41:00,
2013-07-03 18:46:00,75.8,54.7,30.05,NNE,21,0.0,0.0,48,0.00,,---,0.00,VWS V14.01,2013-07-03 22:46:00,
2013-07-03 18:51:00,75.4,56.0,30.05,NNE,21,0.0,0.0,51,0.00,,---,0.00,VWS V14.01,2013-07-03 22:51:00,
2013-07-03 18:56:00,75.3,55.9,30.05,NNE,21,0.0,0.0,51,0.00,,---,0.00,VWS V14.01,2013-07-03 22:56:00,
2013-07-03 19:01:00,75.1,56.3,30.06,NNE,21,0.0,0.0,52,0.00,,---,0.00,VWS V14.01,2013-07-03 23:01:00,
2013-07-03 19:07:00,74.9,56.1,30.05,NNE,21,0.0,0.0,52,0.00,,---,0.00,VWS V14.01,2013-07-03 23:07:00,
2013-07-03 19:12:00,74.6,56.9,30.06,NNE,21,0.0,0.0,54,0.00,,---,0.00,VWS V14.01,2013-07-03 23:12:00,
2013-07-03 19:17:00,74.2,56.5,30.05,NNE,21,0.0,0.0,54,0.00,,---,0.00,VWS V14.01,2013-07-03 23:17:00,
2013-07-03 19:22:00,74.0,56.3,30.05,NNE,30,0.0,0.0,54,0.00,,---,0.00,VWS V14.01,2013-07-03 23:22:00,
2013-07-03 19:27:00,73.9,56.2,30.06,NNE,30,0.0,0.0,54,0.00,,---,0.00,VWS V14.01,2013-07-03 23:27:00,
2013-07-03 19:32:00,73.9,56.2,30.05,NNE,30,0.0,0.0,54,0.00,,---,0.00,VWS V14.01,2013-07-03 23:32:00,
2013-07-03 19:38:00,73.9,56.7,30.05,NNE,30,0.0,0.0,55,0.00,,---,0.00,VWS V14.01,2013-07-03 23:38:00,
2013-07-03 19:43:00,73.9,57.2,30.06,NNE,30,0.0,0.0,56,0.00,,---,0.00,VWS V14.01,2013-07-03 23:43:00,
2013-07-03 19:48:00,73.9,56.7,30.06,NNE,30,0.0,0.0,55,0.00,,---,0.00,VWS V14.01,2013-07-03 23:48:00,
2013-07-03 19:53:00,73.9,57.2,30.05,NNE,30,0.0,0.0,56,0.00,,---,0.00,VWS V14.01,2013-07-03 23:53:00,
2013-07-03 19:58:00,73.7,57.0,30.05,NNE,30,0.0,0.0,56,0.00,,---,0.00,VWS V14.01,2013-07-03 23:58:00,
2013-07-03 20:03:00,73.7,58.0,30.05,NNE,30,0.0,0.0,58,0.00,,---,0.00,VWS V14.01,2013-07-04 00:03:00,
2013-07-03 20:08:00,73.5,57.3,30.05,NNE,30,0.0,0.0,57,0.00,,---,0.00,VWS V14.01,2013-07-04 00:08:00,
2013-07-03 20:13:00,73.3,57.7,30.05,NNE,30,0.0,0.0,58,0.00,,---,0.00,VWS V14.01,2013-07-04 00:13:00,
2013-07-03 20:18:00,73.3,57.7,30.05,NNE,30,0.0,0.0,58,0.00,,---,0.00,VWS V14.01,2013-07-04 00:18:00,
2013-07-03 20:24:00,73.2,58.0,30.05,NNE,30,0.0,0.0,59,0.00,,---,0.00,VWS V14.01,2013-07-04 00:24:00,
2013-07-03 20:29:00,73.3,57.2,30.05,NNE,30,0.0,0.0,57,0.00,,---,0.00,VWS V14.01,2013-07-04 00:29:00,
2013-07-03 20:34:00,73.3,56.7,30.05,NNE,30,0.0,0.0,56,0.00,,---,0.00,VWS V14.01,2013-07-04 00:34:00,
2013-07-03 20:39:00,73.3,57.7,30.05,NNE,30,0.0,0.0,58,0.00,,---,0.00,VWS V14.01,2013-07-04 00:39:00,
2013-07-03 20:44:00,73.3,57.7,30.05,NNE,30,0.0,0.0,58,0.00,,---,0.00,VWS V14.01,2013-07-04 00:44:00,
2013-07-03 20:49:00,73.2,57.5,30.05,NNE,30,0.0,0.0,58,0.00,,---,0.00,VWS V14.01,2013-07-04 00:49:00,
2013-07-03 20:54:00,73.0,58.8,30.04,NNE,30,0.0,0.0,61,0.00,,---,0.00,VWS V14.01,2013-07-04 00:54:00,
2013-07-03 20:59:00,72.5,58.8,30.04,NNE,30,0.0,0.0,62,0.00,,---,0.00,VWS V14.01,2013-07-04 00:59:00,
2013-07-03 21:04:00,72.0,59.2,30.04,NNE,30,0.0,0.0,64,0.00,,---,0.00,VWS V14.01,2013-07-04 01:04:00,
2013-07-03 21:09:00,71.5,59.1,30.04,NNE,30,0.0,0.0,65,0.00,,---,0.00,VWS V14.01,2013-07-04 01:09:00,
2013-07-03 21:14:00,71.1,58.8,30.04,NNE,30,0.0,0.0,65,0.00,,---,0.00,VWS V14.01,2013-07-04 01:14:00,
2013-07-03 21:19:00,70.9,59.0,30.05,NNE,30,0.0,0.0,66,0.00,,---,0.00,VWS V14.01,2013-07-04 01:19:00,
2013-07-03 21:25:00,70.4,58.5,30.04,NNE,30,0.0,0.0,66,0.00,,---,0.00,VWS V14.01,2013-07-04 01:25:00,
2013-07-03 21:30:00,69.8,58.8,30.04,NNE,30,0.0,0.0,68,0.00,,---,0.00,VWS V14.01,2013-07-04 01:30:00,
2013-07-03 21:35:00,69.4,58.8,30.04,NNE,30,0.0,0.0,69,0.00,,---,0.00,VWS V14.01,2013-07-04 01:35:00,
2013-07-03 21:40:00,68.9,57.9,30.05,NNE,30,0.0,0.0,68,0.00,,---,0.00,VWS V14.01,2013-07-04 01:40:00,
2013-07-03 21:45:00,68.4,57.8,30.05,NNE,30,0.0,0.0,69,0.00,,---,0.00,VWS V14.01,2013-07-04 01:45:00,
2013-07-03 21:50:00,67.9,57.0,30.05,NNE,30,0.0,0.0,68,0.00,,---,0.00,VWS V14.01,2013-07-04 01:50:00,
2013-07-03 21:55:00,67.6,57.5,30.05,NNE,30,0.0,0.0,70,0.00,,---,0.00,VWS V14.01,2013-07-04 01:55:00,
2013-07-03 22:01:00,67.1,57.0,30.05,NNE,30,0.0,0.0,70,0.00,,---,0.00,VWS V14.01,2013-07-04 02:01:00,
2013-07-03 22:06:00,66.8,57.1,30.06,NNE,30,0.0,0.0,71,0.00,,---,0.00,VWS V14.01,2013-07-04 02:06:00,
2013-07-03 22:11:00,66.4,56.7,30.05,NNE,30,0.0,0.0,71,0.00,,---,0.00,VWS V14.01,2013-07-04 02:11:00,
2013-07-03 22:16:00,66.0,57.1,30.06,NNE,30,0.0,0.0,73,0.00,,---,0.00,VWS V14.01,2013-07-04 02:16:00,
2013-07-03 22:21:00,65.6,56.7,30.06,NNE,30,0.0,0.0,73,0.00,,---,0.00,VWS V14.01,2013-07-04 02:21:00,
2013-07-03 22:26:00,65.3,56.8,30.06,NNE,30,0.0,0.0,74,0.00,,---,0.00,VWS V14.01,2013-07-04 02:26:00,
2013-07-03 22:32:00,65.0,56.5,30.06,NNE,30,0.0,0.0,74,0.00,,---,0.00,VWS V14.01,2013-07-04 02:32:00,
2013-07-03 22:37:00,64.8,56.7,30.06,NNE,30,0.0,0.0,75,0.00,,---,0.00,VWS V14.01,2013-07-04 02:37:00,
2013-07-03 22:42:00,64.7,56.6,30.06,NNE,30,0.0,0.0,75,0.00,,---,0.00,VWS V14.01,2013-07-04 02:42:00,
2013-07-03 22:47:00,64.7,57.0,30.06,NNE,30,0.0,0.0,76,0.00,,---,0.00,VWS V14.01,2013-07-04 02:47:00,
2013-07-03 22:52:00,64.5,57.5,30.06,NNE,30,0.0,0.0,78,0.00,,---,0.00,VWS V14.01,2013-07-04 02:52:00,
2013-07-03 22:57:00,64.3,57.0,30.06,NNE,30,0.0,0.0,77,0.00,,---,0.00,VWS V14.01,2013-07-04 02:57:00,
2013-07-03 23:02:00,64.2,57.2,30.06,NNE,30,0.0,0.0,78,0.00,,---,0.00,VWS V14.01,2013-07-04 03:02:00,
2013-07-03 23:09:00,64.0,57.0,30.06,NNE,30,0.0,0.0,78,0.00,,---,0.00,VWS V14.01,2013-07-04 03:09:00,
2013-07-03 23:14:00,63.9,57.3,30.07,NNE,30,0.0,0.0,79,0.00,,---,0.00,VWS V14.01,2013-07-04 03:14:00,
2013-07-03 23:19:00,63.7,57.1,30.07,NNE,30,0.0,0.0,79,0.00,,---,0.00,VWS V14.01,2013-07-04 03:19:00,
2013-07-03 23:24:00,63.7,57.8,30.06,NNE,30,0.0,0.0,81,0.00,,---,0.00,VWS V14.01,2013-07-04 03:24:00,
2013-07-03 23:29:00,63.5,57.6,30.07,NNE,30,0.0,0.0,81,0.00,,---,0.00,VWS V14.01,2013-07-04 03:29:00,
2013-07-03 23:34:00,63.5,57.9,30.06,NNE,30,0.0,0.0,82,0.00,,---,0.00,VWS V14.01,2013-07-04 03:34:00,
2013-07-03 23:39:00,63.5,58.2,30.06,NNE,30,0.0,0.0,83,0.00,,---,0.00,VWS V14.01,2013-07-04 03:39:00,
2013-07-03 23:44:00,63.4,58.2,30.07,NNE,30,0.0,0.0,83,0.00,,---,0.00,VWS V14.01,2013-07-04 03:44:00,
2013-07-03 23:49:00,63.4,58.5,30.06,NNE,30,0.0,0.0,84,0.00,,---,0.00,VWS V14.01,2013-07-04 03:49:00,
2013-07-03 23:54:00,63.4,58.5,30.06,NNE,30,0.0,0.0,84,0.00,,---,0.00,VWS V14.01,2013-07-04 03:54:00,
2013-07-03 23:59:00,63.2,58.6,30.07,NNE,30,0.0,0.0,85,0.00,,---,0.00,VWS V14.01,2013-07-04 03:59:00,